Time;durP1;ratioP1;P1;durP2;ratioP2;P2;SDS_P1;SDS_P2;PMS_P1;PMS_P2;Temp;Humidity;BMP_temperature;BMP_pressure;BME280_temperature;BME280_humidity;BME280_pressure;Samples;Min_cycle;Max_cycle;Signal;HPM_P1;HPM_P2
2022/12/30 00:00:19;;;;;;;2.70;0.80;;;;;;;4.72;100.00;97133.84;5045958;28;20045;-64
2022/12/30 00:02:45;;;;;;;2.33;0.70;;;;;;;4.55;100.00;97145.16;5037174;28;20114;-64
2022/12/30 00:05:12;;;;;;;2.22;0.80;;;;;;;4.52;100.00;97148.28;5045213;28;20045;-64
2022/12/30 00:07:39;;;;;;;1.77;0.70;;;;;;;4.38;100.00;97146.72;5047912;28;20091;-64
2022/12/30 00:10:05;;;;;;;3.08;0.70;;;;;;;4.31;100.00;97149.44;5043180;28;20048;-64
2022/12/30 00:35:11;;;;;;;5.40;1.00;;;;;;;4.08;100.00;97166.91;5042544;28;20052;-66
2022/12/30 00:37:38;;;;;;;4.10;1.00;;;;;;;4.16;100.00;97161.31;5046143;28;20068;-66
2022/12/30 00:40:05;;;;;;;2.55;1.00;;;;;;;4.21;100.00;97174.06;5031253;28;20095;-66
2022/12/30 00:45:17;;;;;;;5.07;1.17;;;;;;;4.46;100.00;97161.72;5062088;28;20102;-66
2022/12/30 00:47:45;;;;;;;3.35;0.90;;;;;;;4.55;100.00;97165.78;5042082;28;20045;-66
2022/12/30 00:58:27;;;;;;;2.88;0.90;;;;;;;4.26;100.00;97176.91;5037196;28;20485;-66
2022/12/30 01:00:55;;;;;;;2.25;0.60;;;;;;;4.29;100.00;97178.34;5039831;28;20087;-65
2022/12/30 01:03:21;;;;;;;1.35;0.60;;;;;;;4.50;100.00;97187.06;5042062;28;20137;-65
2022/12/30 01:05:48;;;;;;;1.88;0.75;;;;;;;4.52;100.00;97184.97;5037389;28;20171;-66
2022/12/30 01:08:14;;;;;;;2.95;0.80;;;;;;;4.25;100.00;97199.41;5039924;28;20037;-66
2022/12/30 01:10:41;;;;;;;2.05;0.90;;;;;;;4.15;100.00;97204.38;5028316;28;20131;-66
2022/12/30 01:13:08;;;;;;;2.20;0.80;;;;;;;4.16;100.00;97208.72;5040354;28;20033;-64
2022/12/30 01:15:35;;;;;;;4.45;0.70;;;;;;;4.23;100.00;97212.19;5045077;28;20045;-65
2022/12/30 01:18:02;;;;;;;2.67;0.90;;;;;;;4.35;100.00;97206.94;5035018;28;20040;-64
2022/12/30 01:20:28;;;;;;;2.75;1.02;;;;;;;4.46;100.00;97201.94;5043909;28;20118;-64
2022/12/30 01:22:55;;;;;;;4.95;0.90;;;;;;;4.60;100.00;97208.84;5041135;28;20045;-64
2022/12/30 01:25:21;;;;;;;2.35;0.70;;;;;;;4.73;100.00;97207.94;5039782;28;20393;-65
2022/12/30 01:27:51;;;;;;;3.92;0.75;;;;;;;4.77;100.00;97213.69;5036736;28;20095;-65
2022/12/30 01:30:17;;;;;;;2.08;0.70;;;;;;;4.83;100.00;97207.44;5043002;28;20055;-64
2022/12/30 01:32:44;;;;;;;1.73;0.70;;;;;;;4.75;100.00;97208.53;5043530;28;20515;-64
2022/12/30 01:35:11;;;;;;;1.27;0.80;;;;;;;4.65;100.00;97217.06;5055455;28;20036;-64
2022/12/30 01:37:38;;;;;;;2.70;0.70;;;;;;;4.80;100.00;97235.50;5026475;28;20038;-64
2022/12/30 01:40:05;;;;;;;3.25;0.80;;;;;;;4.82;100.00;97230.78;5037636;28;20601;-65
2022/12/30 01:42:38;;;;;;;3.28;1.20;;;;;;;4.82;100.00;97233.47;5043628;28;20041;-64
2022/12/30 01:45:18;;;;;;;2.30;0.90;;;;;;;4.63;100.00;97232.56;5037053;28;20602;-65
2022/12/30 01:48:01;;;;;;;1.85;0.98;;;;;;;4.37;100.00;97238.91;5027241;28;20464;-65
2022/12/30 01:50:54;;;;;;;1.92;0.95;;;;;;;4.48;100.00;97251.63;5039280;28;20508;-64
2022/12/30 01:53:25;;;;;;;3.13;0.85;;;;;;;4.31;100.00;97232.53;5027968;28;20152;-65
2022/12/30 01:56:07;;;;;;;1.58;0.50;;;;;;;4.33;100.00;97243.88;5061687;28;20048;-64
2022/12/30 01:58:39;;;;;;;;;;;;;;;4.29;100.00;97235.47;5025119;28;20125;-65
2022/12/30 02:01:08;;;;;;;1.58;0.90;;;;;;;3.70;100.00;97235.50;5021387;28;19947;-64
2022/12/30 02:03:39;;;;;;;2.38;1.05;;;;;;;3.32;100.00;97215.59;5023710;28;20128;-64
2022/12/30 02:06:06;;;;;;;6.93;0.95;;;;;;;3.11;100.00;97205.97;5049656;28;20120;-64
2022/12/30 02:08:34;;;;;;;1.65;0.70;;;;;;;3.22;100.00;97208.03;5037641;28;20091;-65
2022/12/30 02:11:03;;;;;;;2.50;1.05;;;;;;;3.30;100.00;97216.84;5042314;28;20045;-64
2022/12/30 02:13:30;;;;;;;3.58;1.00;;;;;;;3.31;100.00;97230.03;5043683;28;20045;-64
2022/12/30 02:16:37;;;;;;;3.33;1.30;;;;;;;3.34;100.00;97232.28;5035025;28;20587;-65
2022/12/30 02:19:03;;;;;;;3.05;1.20;;;;;;;2.81;100.00;97247.38;5032418;28;20129;-64
2022/12/30 02:22:07;;;;;;;5.10;1.35;;;;;;;2.86;100.00;97241.38;5040955;28;20307;-65
2022/12/30 02:24:51;;;;;;;2.72;1.20;;;;;;;2.80;100.00;97240.34;5030339;28;20033;-65
2022/12/30 02:27:54;;;;;;;3.72;1.45;;;;;;;2.90;100.00;97244.47;5025372;28;20049;-65
2022/12/30 02:30:23;;;;;;;1.98;1.10;;;;;;;2.83;100.00;97257.81;5032513;28;20110;-64
2022/12/30 02:33:08;;;;;;;1.00;0.63;;;;;;;2.50;100.00;97248.75;5021527;28;20053;-64
2022/12/30 02:35:44;;;;;;;1.42;0.80;;;;;;;2.14;100.00;97253.38;5035393;28;20037;-65
2022/12/30 02:38:20;;;;;;;2.03;0.98;;;;;;;2.14;100.00;97252.56;5042928;28;20475;-65
2022/12/30 02:46:52;;;;;;;4.75;1.02;;;;;;;1.73;100.00;97252.41;5027195;28;20505;-64
2022/12/30 02:49:20;;;;;;;2.33;1.23;;;;;;;1.49;100.00;97259.06;5038102;28;20556;-64
2022/12/30 02:54:33;;;;;;;3.85;1.00;;;;;;;1.45;100.00;97282.66;5027974;28;20496;-64
2022/12/30 02:57:00;;;;;;;1.75;0.77;;;;;;;1.54;100.00;97289.47;5033290;28;20116;-64
2022/12/30 03:05:34;;;;;;;1.50;0.85;;;;;;;1.53;100.00;97303.84;5050074;28;20210;-64
2022/12/30 03:08:12;;;;;;;5.85;0.90;;;;;;;1.56;100.00;97305.28;5042123;28;20037;-64
2022/12/30 03:14:10;;;;;;;4.35;1.08;;;;;;;1.28;100.00;97309.63;5025283;28;20041;-64
2022/12/30 03:16:43;;;;;;;2.35;0.73;;;;;;;1.10;100.00;97304.75;5033261;28;20096;-64
2022/12/30 03:19:17;;;;;;;1.55;0.95;;;;;;;1.30;100.00;97298.75;5037436;28;20049;-64
2022/12/30 03:21:45;;;;;;;1.80;1.00;;;;;;;1.30;100.00;97290.75;5022335;28;20099;-64
2022/12/30 03:27:11;;;;;;;4.40;0.82;;;;;;;1.09;100.00;97281.78;5035140;28;20656;-64
2022/12/30 03:29:47;;;;;;;2.70;0.80;;;;;;;0.73;100.00;97274.69;5025793;28;20790;-63
2022/12/30 03:32:15;;;;;;;2.25;0.90;;;;;;;0.69;100.00;97279.59;5042764;28;20049;-64
2022/12/30 03:34:42;;;;;;;3.53;1.35;;;;;;;1.02;100.00;97278.22;5031068;28;20064;-63
2022/12/30 03:37:20;;;;;;;4.05;1.00;;;;;;;1.37;100.00;97293.47;5047156;28;20531;-64
2022/12/30 03:39:59;;;;;;;1.70;0.85;;;;;;;1.29;100.00;97297.13;5035118;28;20029;-64
2022/12/30 03:42:27;;;;;;;4.75;1.42;;;;;;;1.27;100.00;97297.31;5046561;28;20048;-63
2022/12/30 03:44:53;;;;;;;2.42;1.02;;;;;;;1.12;100.00;97294.72;5031712;28;20528;-64
2022/12/30 03:47:20;;;;;;;2.65;1.25;;;;;;;1.09;100.00;97289.78;5035343;28;20566;-64
2022/12/30 03:49:47;;;;;;;2.35;1.02;;;;;;;1.19;100.00;97288.59;5047135;28;20574;-64
2022/12/30 03:52:15;;;;;;;4.13;1.42;;;;;;;1.20;100.00;97284.91;5033732;28;20500;-63
2022/12/30 03:54:42;;;;;;;4.03;1.40;;;;;;;0.78;100.00;97270.44;5032843;28;20033;-63
2022/12/30 03:57:08;;;;;;;2.15;1.08;;;;;;;0.58;100.00;97264.94;5046158;28;20504;-64
2022/12/30 03:59:35;;;;;;;2.28;1.30;;;;;;;0.61;100.00;97255.72;5042178;28;20064;-64
2022/12/30 04:02:01;;;;;;;4.18;1.90;;;;;;;0.70;100.00;97254.56;5039372;28;20041;-64
2022/12/30 04:04:28;;;;;;;3.38;1.30;;;;;;;0.67;100.00;97252.31;5045881;28;20124;-63
2022/12/30 04:06:55;;;;;;;3.05;1.38;;;;;;;0.77;100.00;97263.47;5032709;28;20048;-63
2022/12/30 04:09:21;;;;;;;3.78;1.45;;;;;;;0.90;100.00;97272.59;5042241;28;20136;-64
2022/12/30 04:11:48;;;;;;;2.50;1.20;;;;;;;1.03;100.00;97278.03;5045457;28;20071;-63
2022/12/30 04:14:14;;;;;;;4.72;1.10;;;;;;;0.78;100.00;97282.97;5029194;28;20536;-63
2022/12/30 04:16:41;;;;;;;3.33;1.50;;;;;;;0.52;100.00;97271.84;5042991;28;20811;-64
2022/12/30 04:19:07;;;;;;;4.03;1.45;;;;;;;0.58;100.00;97275.59;5042207;28;20033;-63
2022/12/30 04:21:34;;;;;;;4.28;1.35;;;;;;;0.52;100.00;97269.16;5039746;28;20056;-63
2022/12/30 04:24:01;;;;;;;3.05;1.40;;;;;;;0.49;100.00;97264.25;5046915;28;20606;-63
2022/12/30 04:26:27;;;;;;;3.72;1.38;;;;;;;0.37;100.00;97263.09;5046574;28;20067;-63
2022/12/30 04:28:54;;;;;;;5.80;1.70;;;;;;;0.37;100.00;97265.75;5033175;28;20509;-63
2022/12/30 04:31:20;;;;;;;4.15;1.45;;;;;;;0.11;100.00;97264.47;5038611;28;20369;-63
2022/12/30 04:33:52;;;;;;;3.50;1.10;;;;;;;0.40;100.00;97267.22;5046887;28;20098;-64
2022/12/30 04:36:20;;;;;;;4.60;1.52;;;;;;;0.44;100.00;97265.81;5043621;28;20055;-64
2022/12/30 04:38:47;;;;;;;5.40;1.88;;;;;;;0.33;100.00;97262.63;5046450;28;20070;-64
2022/12/30 04:41:14;;;;;;;3.38;1.30;;;;;;;0.11;100.00;97257.28;5043844;28;20064;-64
2022/12/30 04:43:40;;;;;;;3.30;1.35;;;;;;;0.03;100.00;97253.91;5024759;28;20508;-63
2022/12/30 04:46:07;;;;;;;3.70;1.88;;;;;;;0.21;100.00;97256.16;5036673;28;20083;-64
2022/12/30 04:48:33;;;;;;;5.82;1.90;;;;;;;-0.05;100.00;97252.16;5035051;28;20045;-64
2022/12/30 04:51:00;;;;;;;4.00;1.67;;;;;;;-0.08;100.00;97245.38;5045185;28;20472;-64
2022/12/30 04:53:26;;;;;;;4.13;1.63;;;;;;;0.10;100.00;97244.16;5035849;28;20053;-63
2022/12/30 04:55:54;;;;;;;3.85;1.70;;;;;;;0.35;100.00;97246.47;5032837;28;20314;-64
2022/12/30 04:58:22;;;;;;;3.85;1.77;;;;;;;0.61;100.00;97253.91;5042330;28;20053;-63
2022/12/30 05:00:50;;;;;;;5.00;1.75;;;;;;;0.61;100.00;97256.56;5032489;28;20052;-64
2022/12/30 05:03:17;;;;;;;3.70;1.80;;;;;;;0.62;100.00;97258.19;5045968;28;20059;-64
2022/12/30 05:05:45;;;;;;;3.85;1.92;;;;;;;0.42;100.00;97268.66;5051474;28;20040;-64
2022/12/30 05:08:12;;;;;;;3.47;1.73;;;;;;;0.34;100.00;97266.13;5041895;28;20499;-64
2022/12/30 05:10:39;;;;;;;4.32;1.60;;;;;;;-0.16;100.00;97261.47;5037866;28;20056;-64
2022/12/30 05:13:06;;;;;;;4.35;1.83;;;;;;;-0.20;100.00;97266.34;5032711;28;20033;-63
2022/12/30 05:15:33;;;;;;;6.30;2.50;;;;;;;-0.18;100.00;97258.97;5040740;28;20459;-64
2022/12/30 05:17:59;;;;;;;4.07;1.98;;;;;;;-0.19;100.00;97261.84;5046461;28;20049;-63
2022/12/30 05:20:26;;;;;;;6.20;1.90;;;;;;;0.04;100.00;97260.88;5042314;28;20451;-64
2022/12/30 05:22:52;;;;;;;3.03;1.45;;;;;;;-0.06;100.00;97259.34;5024414;28;20124;-64
2022/12/30 05:28:04;;;;;;;3.97;1.77;;;;;;;-0.09;100.00;97274.84;5024146;28;20073;-64
2022/12/30 05:30:30;;;;;;;6.38;1.70;;;;;;;-0.07;100.00;97280.81;5028078;28;20037;-65
2022/12/30 05:32:57;;;;;;;6.47;2.08;;;;;;;-0.03;100.00;97282.09;5040419;28;20046;-64
2022/12/30 05:35:24;;;;;;;3.78;1.77;;;;;;;-0.16;100.00;97272.94;5026892;28;20049;-64
2022/12/30 05:37:50;;;;;;;6.13;1.83;;;;;;;-0.09;100.00;97278.34;5045367;28;20099;-64
2022/12/30 05:40:17;;;;;;;5.40;1.77;;;;;;;-0.11;100.00;97280.34;5034168;28;20053;-64
2022/12/30 05:42:43;;;;;;;5.18;1.83;;;;;;;-0.11;100.00;97282.22;5044607;28;20057;-64
2022/12/30 05:45:10;;;;;;;4.45;1.90;;;;;;;-0.06;100.00;97285.97;5044134;28;20056;-64
2022/12/30 05:47:37;;;;;;;4.45;1.88;;;;;;;0.03;100.00;97288.53;5041385;28;20049;-64
2022/12/30 05:50:04;;;;;;;7.88;2.17;;;;;;;0.01;100.00;97278.06;5040663;28;20044;-64
2022/12/30 05:52:31;;;;;;;4.05;1.63;;;;;;;0.11;100.00;97280.44;5041136;28;20097;-64
2022/12/30 05:54:57;;;;;;;3.15;1.60;;;;;;;0.06;100.00;97273.00;5044572;28;20087;-65
2022/12/30 05:57:24;;;;;;;5.63;1.95;;;;;;;0.11;100.00;97272.44;5041790;28;20064;-64
2022/12/30 05:59:50;;;;;;;3.30;1.70;;;;;;;0.24;100.00;97274.41;5042763;28;20505;-64
2022/12/30 06:02:17;;;;;;;3.47;1.70;;;;;;;0.26;100.00;97272.41;5042030;28;20111;-64
2022/12/30 06:04:44;;;;;;;6.93;1.80;;;;;;;0.45;100.00;97278.97;5034660;28;20075;-64
2022/12/30 06:07:10;;;;;;;4.50;2.00;;;;;;;0.53;100.00;97278.00;5059465;28;20051;-64
2022/12/30 06:09:37;;;;;;;4.05;1.90;;;;;;;0.82;100.00;97283.38;5035363;28;20041;-64
2022/12/30 06:12:03;;;;;;;3.58;1.73;;;;;;;1.18;100.00;97274.44;5037549;28;20048;-65
2022/12/30 06:14:30;;;;;;;4.40;2.10;;;;;;;1.46;100.00;97273.59;5025499;28;20091;-64
2022/12/30 06:16:57;;;;;;;5.43;2.72;;;;;;;1.55;100.00;97269.75;5037809;28;20048;-64
2022/12/30 06:19:23;;;;;;;4.60;2.35;;;;;;;1.67;100.00;97270.03;5044888;28;20037;-64
2022/12/30 06:21:50;;;;;;;6.28;2.80;;;;;;;1.68;100.00;97266.34;5033414;28;20560;-64
2022/12/30 06:24:16;;;;;;;5.35;2.42;;;;;;;1.67;100.00;97271.88;5022247;28;20064;-64
2022/12/30 06:26:44;;;;;;;5.25;1.83;;;;;;;1.57;100.00;97266.91;5038142;28;20137;-65
2022/12/30 06:29:10;;;;;;;4.13;1.95;;;;;;;1.46;100.00;97278.94;5035476;28;20064;-64
2022/12/30 06:31:37;;;;;;;5.63;3.13;;;;;;;1.41;100.00;97276.03;5041177;28;20045;-64
2022/12/30 06:34:03;;;;;;;5.05;1.55;;;;;;;1.33;100.00;97274.38;5065071;28;20404;-64
2022/12/30 06:36:30;;;;;;;4.70;1.80;;;;;;;1.35;100.00;97271.47;5062113;28;20044;-64
2022/12/30 06:38:56;;;;;;;5.30;2.03;;;;;;;1.39;100.00;97276.25;5064346;28;20048;-64
2022/12/30 06:41:23;;;;;;;3.30;1.58;;;;;;;1.51;100.00;97271.16;5036874;28;20056;-64
2022/12/30 06:43:49;;;;;;;4.22;1.92;;;;;;;1.64;100.00;97273.09;5040201;28;20132;-64
2022/12/30 06:46:16;;;;;;;3.75;1.75;;;;;;;1.68;100.00;97261.00;5034917;28;20049;-64
2022/12/30 06:48:42;;;;;;;2.67;1.45;;;;;;;1.72;100.00;97248.09;5026597;28;20431;-64
2022/12/30 06:51:09;;;;;;;3.20;1.60;;;;;;;1.83;100.00;97249.38;5043410;28;20037;-64
2022/12/30 06:53:35;;;;;;;3.25;1.88;;;;;;;1.85;100.00;97250.00;5044331;28;20049;-64
2022/12/30 06:56:03;;;;;;;4.60;2.17;;;;;;;1.87;100.00;97255.97;5027756;28;20116;-64
2022/12/30 06:58:29;;;;;;;3.60;1.83;;;;;;;1.88;100.00;97254.94;5044308;28;20154;-64
2022/12/30 07:00:56;;;;;;;4.53;2.00;;;;;;;1.86;100.00;97257.00;5027432;28;20487;-64
2022/12/30 07:03:22;;;;;;;4.20;2.13;;;;;;;1.90;100.00;97260.91;5043326;28;20053;-64
2022/12/30 07:05:49;;;;;;;4.72;2.10;;;;;;;1.93;100.00;97263.19;5033091;28;20505;-64
2022/12/30 07:08:16;;;;;;;3.97;1.75;;;;;;;1.98;100.00;97256.44;5048522;28;20051;-65
2022/12/30 07:10:42;;;;;;;3.25;1.83;;;;;;;1.97;100.00;97260.09;5046268;28;20114;-64
2022/12/30 07:13:17;;;;;;;3.40;1.85;;;;;;;2.06;100.00;97257.06;5026438;28;20065;-64
2022/12/30 07:15:43;;;;;;;6.85;2.28;;;;;;;2.12;100.00;97263.47;5027122;28;20096;-65
2022/12/30 07:18:10;;;;;;;5.47;1.90;;;;;;;2.13;100.00;97257.09;5038103;28;20284;-64
2022/12/30 07:20:37;;;;;;;6.35;2.20;;;;;;;2.14;100.00;97250.72;5030465;28;20626;-64
2022/12/30 07:23:04;;;;;;;3.88;1.88;;;;;;;2.15;100.00;97248.88;5039518;28;20364;-64
2022/12/30 07:25:31;;;;;;;4.82;2.00;;;;;;;2.17;100.00;97247.66;5025506;28;20084;-64
2022/12/30 07:28:00;;;;;;;3.53;2.00;;;;;;;2.18;100.00;97241.28;5033922;28;20491;-64
2022/12/30 07:30:27;;;;;;;4.85;2.65;;;;;;;2.26;100.00;97242.97;5044908;28;20044;-64
2022/12/30 07:32:54;;;;;;;3.75;1.83;;;;;;;2.34;100.00;97244.59;5032247;28;20038;-64
2022/12/30 07:35:22;;;;;;;5.00;2.40;;;;;;;2.43;100.00;97234.56;5023420;28;20049;-65
2022/12/30 07:37:50;;;;;;;3.38;1.80;;;;;;;2.56;100.00;97229.22;5034934;28;20045;-64
2022/12/30 07:40:17;;;;;;;3.60;1.65;;;;;;;2.58;100.00;97221.81;5037753;28;20107;-64
2022/12/30 07:42:43;;;;;;;3.67;1.85;;;;;;;2.59;100.00;97223.47;5034870;28;20367;-64
2022/12/30 07:45:16;;;;;;;3.13;1.70;;;;;;;2.69;100.00;97227.59;5028914;28;20045;-64
2022/12/30 07:47:43;;;;;;;4.10;1.85;;;;;;;2.74;100.00;97219.78;5041784;28;20118;-64
2022/12/30 07:50:11;;;;;;;3.83;1.63;;;;;;;2.77;100.00;97211.38;5036381;28;20041;-65
2022/12/30 07:52:38;;;;;;;4.75;2.10;;;;;;;2.76;100.00;97209.69;5038269;28;20099;-64
2022/12/30 07:55:05;;;;;;;3.65;1.55;;;;;;;2.78;100.00;97210.31;5048696;28;20064;-64
2022/12/30 07:57:31;;;;;;;3.83;1.98;;;;;;;2.84;100.00;97214.84;5035549;28;20532;-64
2022/12/30 07:59:58;;;;;;;3.60;1.90;;;;;;;2.90;100.00;97213.19;5044289;28;20041;-64
2022/12/30 08:02:24;;;;;;;5.38;2.30;;;;;;;2.91;100.00;97222.06;5036318;28;20084;-64
2022/12/30 08:04:51;;;;;;;6.07;1.92;;;;;;;2.94;100.00;97225.13;5025592;28;20517;-64
2022/12/30 08:07:19;;;;;;;6.32;2.30;;;;;;;2.94;100.00;97218.94;5041920;28;20059;-64
2022/12/30 08:09:46;;;;;;;6.80;2.10;;;;;;;2.91;100.00;97212.16;5034335;28;20112;-64
2022/12/30 08:12:12;;;;;;;4.65;2.00;;;;;;;2.90;100.00;97213.19;5032302;28;20453;-64
2022/12/30 08:14:38;;;;;;;3.80;1.77;;;;;;;3.01;100.00;97217.09;5034384;28;20082;-64
2022/12/30 08:17:05;;;;;;;4.03;1.88;;;;;;;3.07;100.00;97216.28;5037805;28;20049;-64
2022/12/30 08:19:32;;;;;;;6.22;2.10;;;;;;;3.18;100.00;97217.50;5042390;28;20509;-64
2022/12/30 08:21:58;;;;;;;3.22;1.52;;;;;;;3.24;100.00;97208.63;5046177;28;20071;-64
2022/12/30 08:24:25;;;;;;;5.25;1.90;;;;;;;3.29;100.00;97199.16;5046671;28;20102;-64
2022/12/30 08:26:51;;;;;;;4.95;1.88;;;;;;;3.35;100.00;97203.66;5051522;28;20385;-64
2022/12/30 08:29:18;;;;;;;3.17;1.52;;;;;;;3.42;100.00;97199.13;5033126;28;20041;-64
2022/12/30 08:31:49;;;;;;;5.20;1.67;;;;;;;3.44;100.00;97191.72;5029958;28;20033;-64
2022/12/30 08:34:18;;;;;;;4.80;1.90;;;;;;;3.50;100.00;97203.41;5037270;28;20041;-64
2022/12/30 08:36:45;;;;;;;6.35;2.17;;;;;;;3.57;100.00;97196.19;5040784;28;20037;-64
2022/12/30 08:39:12;;;;;;;5.93;1.75;;;;;;;3.65;100.00;97195.16;5046772;28;20037;-65
2022/12/30 08:41:41;;;;;;;3.67;1.70;;;;;;;3.65;100.00;97195.16;5030417;28;20052;-64
2022/12/30 08:44:12;;;;;;;3.85;1.65;;;;;;;3.68;100.00;97188.56;5042428;28;20048;-64
2022/12/30 08:46:40;;;;;;;3.88;2.00;;;;;;;3.67;100.00;97185.03;5026219;28;20425;-65
2022/12/30 08:49:09;;;;;;;5.47;2.00;;;;;;;3.75;100.00;97183.97;5034594;28;20044;-64
2022/12/30 08:51:36;;;;;;;4.38;1.73;;;;;;;3.84;100.00;97171.16;5031649;28;20128;-64
2022/12/30 08:54:02;;;;;;;4.90;2.13;;;;;;;3.87;100.00;97176.91;5044570;28;20040;-65
2022/12/30 08:56:32;;;;;;;4.68;1.60;;;;;;;3.96;100.00;97172.13;5044209;28;20045;-64
2022/12/30 08:58:59;;;;;;;5.82;2.58;;;;;;;3.96;100.00;97180.19;5029284;28;20045;-64
2022/12/30 09:01:33;;;;;;;6.05;2.67;;;;;;;4.07;100.00;97175.16;5040667;28;20103;-65
2022/12/30 09:04:00;;;;;;;7.97;3.22;;;;;;;4.18;100.00;97179.84;5030637;28;20083;-65
2022/12/30 09:06:29;;;;;;;4.47;1.65;;;;;;;4.25;100.00;97180.63;5038388;28;20037;-65
2022/12/30 09:08:58;;;;;;;8.13;3.00;;;;;;;4.32;100.00;97169.88;5039760;28;20077;-64
2022/12/30 09:11:31;;;;;;;2.78;1.48;;;;;;;4.47;100.00;97169.56;5043040;28;20076;-63
2022/12/30 09:14:00;;;;;;;6.32;2.92;;;;;;;4.57;100.00;97170.94;5052380;28;20492;-63
2022/12/30 09:16:28;;;;;;;10.40;4.40;;;;;;;4.58;100.00;97173.41;5048333;28;20407;-63
2022/12/30 09:18:54;;;;;;;7.05;2.60;;;;;;;4.64;100.00;97160.97;5045342;28;20504;-64
2022/12/30 09:21:21;;;;;;;10.27;3.33;;;;;;;4.68;100.00;97171.03;5042520;28;20052;-63
2022/12/30 09:23:48;;;;;;;11.00;3.78;;;;;;;4.71;100.00;97171.66;5052819;28;20078;-63
2022/12/30 09:26:17;;;;;;;10.95;5.00;;;;;;;4.75;100.00;97176.34;5054987;28;20063;-63
2022/12/30 09:28:44;;;;;;;5.75;2.20;;;;;;;4.78;100.00;97175.09;5053451;28;20123;-63
2022/12/30 09:31:11;;;;;;;3.85;1.20;;;;;;;4.83;100.00;97164.50;5060403;28;20136;-63
2022/12/30 09:33:38;;;;;;;5.53;2.08;;;;;;;4.81;100.00;97156.72;5056242;28;20117;-64
2022/12/30 09:36:05;;;;;;;4.03;1.77;;;;;;;4.85;100.00;97143.66;5047172;28;20119;-64
2022/12/30 09:38:32;;;;;;;2.28;1.20;;;;;;;4.88;100.00;97142.41;5058914;28;20052;-63
2022/12/30 09:41:03;;;;;;;11.73;4.30;;;;;;;4.90;100.00;97140.34;5034048;28;20045;-64
2022/12/30 09:43:49;;;;;;;3.47;1.67;;;;;;;4.95;100.00;97146.66;5032277;28;20052;-63
2022/12/30 09:46:36;;;;;;;4.53;1.60;;;;;;;5.00;100.00;97134.44;5033458;28;20041;-63
2022/12/30 09:49:36;;;;;;;4.53;1.65;;;;;;;4.98;100.00;97131.16;5033444;28;21154;-63
2022/12/30 09:52:35;;;;;;;5.40;2.03;;;;;;;5.00;100.00;97137.13;5032525;28;20147;-64
2022/12/30 09:55:09;;;;;;;5.25;2.40;;;;;;;5.11;100.00;97130.19;5032522;28;20534;-64
2022/12/30 09:57:37;;;;;;;4.40;2.13;;;;;;;5.13;100.00;97120.06;5055832;28;20090;-64
2022/12/30 10:00:17;;;;;;;12.32;4.55;;;;;;;5.13;100.00;97102.13;5050582;28;20106;-63
2022/12/30 10:02:53;;;;;;;4.15;2.05;;;;;;;5.16;100.00;97098.97;5037858;28;20037;-63
2022/12/30 10:05:33;;;;;;;3.97;2.22;;;;;;;5.22;100.00;97099.94;5029419;28;20790;-64
2022/12/30 10:08:16;;;;;;;3.28;1.70;;;;;;;5.26;100.00;97095.75;5044131;28;20848;-64
2022/12/30 10:11:05;;;;;;;2.92;1.40;;;;;;;5.33;100.00;97087.63;5050180;28;20102;-64
2022/12/30 10:13:46;;;;;;;1.42;0.95;;;;;;;5.39;100.00;97081.38;5040633;28;20049;-65
2022/12/30 10:16:39;;;;;;;1.70;1.00;;;;;;;5.45;100.00;97085.81;5038989;28;20620;-64
2022/12/30 10:19:16;;;;;;;1.95;1.10;;;;;;;5.46;100.00;97082.09;5037974;28;20283;-64
2022/12/30 10:22:06;;;;;;;2.72;1.30;;;;;;;5.52;100.00;97080.38;5023481;28;20041;-64
2022/12/30 10:24:47;;;;;;;3.70;1.55;;;;;;;5.50;100.00;97069.03;5026275;28;20041;-64
2022/12/30 10:27:47;;;;;;;3.05;1.10;;;;;;;5.56;100.00;97068.13;5039856;28;20441;-64
2022/12/30 10:30:17;;;;;;;1.77;0.95;;;;;;;5.65;100.00;97065.13;5037574;28;20048;-64
2022/12/30 10:32:53;;;;;;;1.85;1.00;;;;;;;5.68;100.00;97065.47;5039955;28;20116;-64
2022/12/30 10:35:26;;;;;;;2.88;1.15;;;;;;;5.79;100.00;97057.72;5029225;28;20067;-64
2022/12/30 10:37:59;;;;;;;5.40;2.60;;;;;;;5.86;100.00;97061.09;5032611;28;20114;-64
2022/12/30 10:40:39;;;;;;;14.20;8.18;;;;;;;5.86;100.00;97053.88;5027359;28;20041;-64
2022/12/30 10:44:06;;;;;;;5.32;2.50;;;;;;;5.98;100.00;97042.34;5027419;28;20505;-64
2022/12/30 10:47:10;;;;;;;3.90;1.45;;;;;;;6.01;100.00;97038.38;5049614;28;20140;-65
2022/12/30 10:49:49;;;;;;;3.55;1.95;;;;;;;5.95;100.00;97026.66;5054618;28;20048;-65
2022/12/30 10:52:16;;;;;;;2.80;1.00;;;;;;;6.03;100.00;97037.13;5052218;28;20055;-66
2022/12/30 10:54:44;;;;;;;3.13;1.52;;;;;;;6.05;100.00;97036.88;5038290;28;20044;-63
2022/12/30 10:57:19;;;;;;;10.77;5.68;;;;;;;6.05;100.00;97026.94;5048371;28;20083;-64
2022/12/30 10:59:47;;;;;;;4.18;2.13;;;;;;;6.07;100.00;97027.53;5037069;28;20564;-65
2022/12/30 11:02:19;;;;;;;2.30;1.30;;;;;;;6.06;100.00;97028.59;5049362;28;20040;-66
2022/12/30 11:04:45;;;;;;;2.22;1.20;;;;;;;6.00;100.00;97029.47;5045397;28;20079;-66
2022/12/30 11:07:15;;;;;;;4.40;2.42;;;;;;;6.00;100.00;97032.16;5046993;28;20555;-67
2022/12/30 11:09:44;;;;;;;3.28;1.42;;;;;;;6.08;100.00;97037.22;5059006;28;20072;-65
2022/12/30 11:15:26;;;;;;;2.30;1.05;;;;;;;6.04;100.00;97027.19;5058049;28;20048;-70
2022/12/30 11:17:56;;;;;;;2.22;1.20;;;;;;;6.04;100.00;97016.44;5047328;28;20220;-67
2022/12/30 11:20:29;;;;;;;3.67;1.23;;;;;;;6.10;100.00;97028.94;5044620;28;20440;-69
2022/12/30 11:22:57;;;;;;;2.40;1.10;;;;;;;6.10;100.00;97019.03;5046522;28;20060;-68
2022/12/30 11:25:27;;;;;;;3.13;1.60;;;;;;;6.09;100.00;97008.50;5036530;28;20069;-68
2022/12/30 11:27:56;;;;;;;5.30;1.70;;;;;;;6.18;100.00;96998.19;5041531;28;20133;-69
2022/12/30 11:30:35;;;;;;;3.72;1.88;;;;;;;6.18;100.00;96990.13;5026169;28;20041;-68
2022/12/30 11:33:04;;;;;;;4.63;2.72;;;;;;;6.18;100.00;96987.44;5047057;28;20040;-64
2022/12/30 11:35:42;;;;;;;4.22;2.47;;;;;;;6.21;100.00;96981.63;5025191;28;20120;-67
2022/12/30 11:38:33;;;;;;;7.53;2.97;;;;;;;6.31;100.00;96976.50;5036892;28;20037;-66
2022/12/30 11:41:18;;;;;;;2.63;1.45;;;;;;;6.38;100.00;96977.16;5026864;28;20524;-67
2022/12/30 11:44:11;;;;;;;2.17;1.17;;;;;;;6.34;99.94;96973.31;5032171;28;20053;-68
2022/12/30 11:46:43;;;;;;;5.95;2.40;;;;;;;6.36;100.00;96960.47;5032559;28;20047;-67
2022/12/30 11:49:34;;;;;;;2.92;1.40;;;;;;;6.36;100.00;96949.72;5043529;28;20472;-65
2022/12/30 11:52:17;;;;;;;2.95;1.55;;;;;;;6.35;100.00;96956.13;5000734;28;20056;-63
2022/12/30 11:54:50;;;;;;;2.17;1.25;;;;;;;6.45;100.00;96960.91;5043771;28;20701;-63
2022/12/30 11:57:30;;;;;;;10.10;4.88;;;;;;;6.45;100.00;96955.53;5022868;28;20116;-65
2022/12/30 12:00:01;;;;;;;6.65;3.10;;;;;;;6.45;100.00;96955.53;5039619;28;20041;-66
2022/12/30 12:02:40;;;;;;;3.85;1.90;;;;;;;6.51;100.00;96948.38;5022404;28;20114;-66
2022/12/30 12:05:42;;;;;;;5.20;1.85;;;;;;;6.52;99.60;96944.63;5063753;28;20044;-66
2022/12/30 12:08:23;;;;;;;4.00;1.63;;;;;;;6.50;99.04;96949.44;5047082;28;20037;-68
2022/12/30 12:11:00;;;;;;;9.40;4.03;;;;;;;6.48;99.69;96947.00;5044288;28;20033;-66
2022/12/30 12:13:59;;;;;;;9.13;3.58;;;;;;;6.49;99.66;96939.75;5027570;28;20052;-65
2022/12/30 12:16:39;;;;;;;6.05;2.88;;;;;;;6.59;99.94;96933.75;5057607;28;20044;-65
2022/12/30 12:19:17;;;;;;;5.90;2.28;;;;;;;6.60;98.91;96930.03;5034039;28;20568;-65
2022/12/30 12:21:46;;;;;;;5.00;1.70;;;;;;;6.58;99.18;96922.19;5039143;28;20041;-65
2022/12/30 12:24:18;;;;;;;9.18;2.22;;;;;;;6.59;98.38;96928.38;5040569;28;20053;-64
2022/12/30 12:27:05;;;;;;;4.82;1.92;;;;;;;6.58;98.09;96924.06;5040792;28;20076;-64
2022/12/30 12:29:33;;;;;;;2.53;0.82;;;;;;;6.64;98.06;96923.91;5031515;28;20041;-66
2022/12/30 12:32:24;;;;;;;2.25;0.95;;;;;;;6.59;97.91;96915.75;5030298;28;20044;-63
2022/12/30 12:35:34;;;;;;;4.78;0.85;;;;;;;6.53;98.46;96908.66;5031404;28;20148;-64
2022/12/30 12:38:30;;;;;;;4.30;1.30;;;;;;;6.60;98.11;96916.56;5029924;28;20053;-63
2022/12/30 12:41:12;;;;;;;2.38;1.00;;;;;;;6.54;98.58;96922.88;5025077;28;20152;-63
2022/12/30 12:44:03;;;;;;;4.88;0.98;;;;;;;6.56;98.22;96920.78;5036444;28;20040;-65
2022/12/30 12:46:45;;;;;;;3.13;0.98;;;;;;;6.61;98.24;96921.72;5040511;28;20057;-65
2022/12/30 12:49:23;;;;;;;3.35;1.15;;;;;;;6.61;97.92;96908.28;5034106;28;20041;-64
2022/12/30 12:51:53;;;;;;;2.03;0.90;;;;;;;6.62;97.67;96904.53;5036535;28;20808;-64
2022/12/30 12:54:35;;;;;;;2.00;0.98;;;;;;;6.60;98.22;96895.06;5038406;28;20045;-64